Airfield :
LOGIN :

Register | Disclaimer

   EN    FR    IT 

 










Legend :    VFR   Marginal VFR   IFR   Intensive IFR   Very Intensive IFR
Visi :
Ceiling :
>= 8 km
>= 3000ft
5 to 8 km
1000 to 3000 ft
1500m to 5 km
500 to 1000 ft
800 to 1500m
200 to 500 ft
< 800m
< 200 ft
Symbols :   Thunderstorms  Fog  Heavy snow  Heavy precipitations  Wind > 20 kt
SIGMETs :     Misc.  Thunderstorms  Icing  Turbulence  Mountain Waves  Volcanic Ashes






- Airport Elevation : 63 ft
- IATA code : BZM


EHWO - Woensdrecht Airbase

CURRENT METAR :
  • 280905Z AUTO 22009KT 170V240 9999 FEW017 12/09 Q1006 BLU TEMPO FM0930 23015G25KT SCT020CB

EXPIRED METARs :
  • 280855Z AUTO 21010G22KT 170V250 9999 NCD 12/09 Q1005 BLU TEMPO FM0930 23015G25KT SCT020CB
  • 280847Z AUTO 21012G22KT 170V250 9999 NCD 12/09 Q1005 BLU TEMPO FM0930 23015G25KT SCT020CB
  • 280832Z AUTO 22011KT 180V260 9999 FEW078 BKN085 BKN092 11/08 Q1005 BLU TEMPO FM0930 23012G22KT SCT020CB
  • 280825Z AUTO 22010KT 190V250 9999 SCT055 SCT072 BKN079 11/08 Q1005 BLU
  • 280755Z AUTO 21009KT 180V240 9999 FEW059 SCT064 OVC071 11/09 Q1005 BLU
  • 280725Z AUTO 21009KT 170V260 9999 -RA FEW015CB SCT055 BKN066 10/09 Q1005 BLU
  • 280714Z AUTO 22009KT 190V250 9999 -RA FEW015CB BKN050 OVC056 10/09 Q1005 BLU
  • 280655Z AUTO 23009KT 190V250 9999 -SHRA FEW015CB BKN043 BKN047 10/08 Q1005 BLU
  • 280625Z AUTO 22009KT 190V250 9999 FEW015CB SCT053 BKN092 10/08 Q1004 REDZ BLU
  • 280614Z AUTO 22009KT 180V250 9999 -RA FEW015CB SCT043 BKN064 10/08 Q1004 BLU

TAF TAF EHWO
Valid from the 28 at 06:00 until the 28 at 18:00 UTC


280459Z 2806/2818 22010G20KT 9999 SCT025
BECMG 2806/2808 23015G25KT
TEMPO 2806/2818 SCT020CB
PROB30
TEMPO 2808/2818 3000 SHRA TSRA SCT020CB BKN025



MET'MAP, your aeronautical weather chart ! - Copyright ORBIFLY December 2007 - Disclaimer

ORBIFLY MET'MAP TEAM :

Programming & Development : Alexandra Zaïnal
Concept & original design : Baudouin d'Aumeries
Assistance for programming : Marc-Olivier Méhu
Technical & hardware support : Manuel Goepfert

Contact : metmap@orbifly.com




SOURCES & CREDITS :

   NOAA